Cord, Arkansas
Current Conditions -  °F | °C
As of 7:41 AM on Sunday 23 Nov 2014 (Local Time) from KM19 Reporting Station
Light Rain Light Rain  
Wind Chill: 57°   Ceiling: 900
Heat Index: 57°   Visibility: 4mi
Dew Point: 55°   Wind: 13mph
Humidity: 94%   Direction: 140°SE
Pressure: 29.69"   Gusts: NA
Location:  35.81°N, 91.34°W
Report Text: KM19 231341Z AUTO 14011KT 4SM -RA BR OVC009 14/13 A2969 RMK AO2 P0004
Loading
Personal Weather Stations






























Interactive Weather Map New forecast layout! Learn more

10-Day Weather Forecast

Advertisements
Track Severe Weather on mobile